createdAt,value
2019-02-26T00:02:38.426Z,17.10
2019-02-26T00:05:21.374Z,15.37
2019-02-26T00:08:02.602Z,15.87
2019-02-26T00:10:43.190Z,16.60
2019-02-26T00:13:24.999Z,15.83
2019-02-26T00:16:08.010Z,14.90
2019-02-26T00:18:49.678Z,14.30
2019-02-26T00:21:31.087Z,15.43
2019-02-26T00:24:00.220Z,16.63
2019-02-26T00:26:29.116Z,16.90
2019-02-26T00:28:59.685Z,14.83
2019-02-26T00:31:30.424Z,17.10
2019-02-26T00:33:59.022Z,15.63
2019-02-26T00:36:29.738Z,15.90
2019-02-26T00:39:00.525Z,14.63
2019-02-26T00:41:31.274Z,16.50
2019-02-26T00:44:01.750Z,16.90
2019-02-26T00:46:32.427Z,15.47
2019-02-26T00:49:03.036Z,15.07
2019-02-26T00:51:31.614Z,16.57
2019-02-26T00:54:01.919Z,16.37
2019-02-26T00:56:31.627Z,17.00
2019-02-26T00:59:01.768Z,16.40
2019-02-26T01:01:30.612Z,17.90
2019-02-26T01:03:59.562Z,17.60
2019-02-26T01:06:28.994Z,18.13
2019-02-26T01:09:01.141Z,16.93
2019-02-26T01:11:30.226Z,18.17
2019-02-26T01:13:59.590Z,16.03
2019-02-26T01:16:28.434Z,16.23
2019-02-26T01:18:57.390Z,17.87
2019-02-26T01:21:28.510Z,17.60
2019-02-26T01:23:58.952Z,17.77
2019-02-26T01:26:27.951Z,18.07
2019-02-26T01:28:58.599Z,18.23
2019-02-26T01:31:29.292Z,17.57
2019-02-26T01:33:58.199Z,16.53
2019-02-26T01:36:27.148Z,17.40
2019-02-26T01:38:56.171Z,16.93
2019-02-26T01:41:27.314Z,17.00
2019-02-26T01:43:56.474Z,17.60
2019-02-26T01:46:25.396Z,17.10
2019-02-26T01:48:55.216Z,15.20
2019-02-26T01:51:26.158Z,16.77
2019-02-26T01:53:55.734Z,17.70
2019-02-26T01:56:24.622Z,17.50
2019-02-26T01:58:56.652Z,17.70
2019-02-26T02:01:26.078Z,16.37
2019-02-26T02:03:56.156Z,17.80
2019-02-26T02:06:25.410Z,18.80
2019-02-26T02:08:55.693Z,18.43
2019-02-26T02:11:28.287Z,17.93
2019-02-26T02:13:55.348Z,19.10
2019-02-26T02:16:26.197Z,19.30
2019-02-26T02:18:55.339Z,18.37
2019-02-26T02:21:26.078Z,16.93
2019-02-26T02:23:56.227Z,18.80
2019-02-26T02:26:25.105Z,18.27
2019-02-26T02:28:53.909Z,18.10
2019-02-26T02:31:24.466Z,19.10
2019-02-26T02:33:53.393Z,20.90
2019-02-26T02:36:23.627Z,19.53
2019-02-26T02:38:52.913Z,20.13
2019-02-26T02:41:22.970Z,20.37
2019-02-26T02:43:51.963Z,20.87
2019-02-26T02:46:20.770Z,19.30
2019-02-26T02:48:49.627Z,20.17
2019-02-26T02:51:18.503Z,21.60
2019-02-26T02:53:47.877Z,20.27
2019-02-26T02:56:18.108Z,21.03
2019-02-26T02:58:49.470Z,23.70
2019-02-26T03:01:20.387Z,21.90
2019-02-26T03:03:50.273Z,22.07
2019-02-26T03:06:18.811Z,23.10
2019-02-26T03:08:48.895Z,24.10
2019-02-26T03:11:18.422Z,21.80
2019-02-26T03:13:48.627Z,22.80
2019-02-26T03:16:19.511Z,21.47
2019-02-26T03:18:48.591Z,23.90
2019-02-26T03:21:19.718Z,22.33
2019-02-26T03:23:48.234Z,21.10
2019-02-26T03:26:17.794Z,22.63
2019-02-26T03:28:49.040Z,21.33
2019-02-26T03:31:18.466Z,24.30
2019-02-26T03:33:47.369Z,21.97
2019-02-26T03:36:17.171Z,21.10
2019-02-26T03:38:49.046Z,22.80
2019-02-26T03:41:22.227Z,24.20
2019-02-26T03:43:48.274Z,22.57
2019-02-26T03:46:17.255Z,23.27
2019-02-26T03:48:46.349Z,22.70
2019-02-26T03:51:17.879Z,23.00
2019-02-26T03:53:45.806Z,22.37
2019-02-26T03:56:15.490Z,23.30
2019-02-26T03:58:45.391Z,23.77
2019-02-26T04:01:18.298Z,24.87
2019-02-26T04:03:45.155Z,23.57
2019-02-26T04:06:13.995Z,23.27
2019-02-26T04:08:46.219Z,25.60
2019-02-26T04:11:14.389Z,24.70
2019-02-26T04:13:46.027Z,25.80
2019-02-26T04:16:14.939Z,24.77
2019-02-26T04:18:43.871Z,25.47
2019-02-26T04:21:14.980Z,25.13
2019-02-26T04:23:44.538Z,25.17
2019-02-26T04:26:45.361Z,24.43
2019-02-26T04:29:46.863Z,24.50
2019-02-26T04:32:52.160Z,24.60
2019-02-26T04:35:38.406Z,24.33
2019-02-26T04:38:31.136Z,25.23
2019-02-26T04:41:15.996Z,25.93
2019-02-26T04:44:22.909Z,25.70
2019-02-26T04:47:11.756Z,26.97
2019-02-26T04:49:42.916Z,25.03
2019-02-26T04:52:14.480Z,26.53
2019-02-26T04:54:42.298Z,26.93
2019-02-26T04:57:11.416Z,26.37
2019-02-26T04:59:41.193Z,26.97
2019-02-26T05:02:11.103Z,25.90
2019-02-26T05:04:41.972Z,26.57
2019-02-26T05:07:13.367Z,25.33
2019-02-26T05:09:41.436Z,26.60
2019-02-26T05:12:10.390Z,27.80
2019-02-26T05:14:39.409Z,25.50
2019-02-26T05:17:08.275Z,26.90
2019-02-26T05:19:39.506Z,25.50
2019-02-26T05:22:08.259Z,23.90
2019-02-26T05:24:38.564Z,27.73
2019-02-26T05:27:19.683Z,26.03
2019-02-26T05:29:49.242Z,24.97
2019-02-26T05:32:18.346Z,25.40
2019-02-26T05:34:48.611Z,26.30
2019-02-26T05:37:18.835Z,25.53
2019-02-26T05:39:49.082Z,24.60
2019-02-26T05:42:18.437Z,24.73
2019-02-26T05:44:47.304Z,25.53
2019-02-26T05:47:18.801Z,26.23
2019-02-26T05:49:46.829Z,24.90
2019-02-26T05:52:15.676Z,25.37
2019-02-26T05:54:44.579Z,25.47
2019-02-26T05:57:25.911Z,26.63
2019-02-26T05:59:46.844Z,25.67
2019-02-26T06:02:18.466Z,24.97
2019-02-26T06:04:47.569Z,25.73
2019-02-26T06:07:19.238Z,27.07
2019-02-26T06:09:48.369Z,24.90
2019-02-26T06:12:17.856Z,26.30
2019-02-26T06:14:46.860Z,26.27
2019-02-26T06:17:17.984Z,27.00
2019-02-26T06:19:48.994Z,25.27
2019-02-26T06:22:20.742Z,25.90
2019-02-26T06:24:48.550Z,26.90
2019-02-26T06:27:19.588Z,24.80
2019-02-26T06:30:09.487Z,27.10
2019-02-26T06:32:59.713Z,26.93
2019-02-26T06:35:46.692Z,27.43
2019-02-26T06:38:35.105Z,27.13
2019-02-26T06:41:23.450Z,28.73
2019-02-26T06:44:11.806Z,28.10
2019-02-26T06:47:00.390Z,28.40
2019-02-26T06:49:50.381Z,27.80
2019-02-26T06:52:40.377Z,27.63
2019-02-26T06:55:29.334Z,26.77
2019-02-26T06:58:19.201Z,26.97
2019-02-26T07:01:09.412Z,28.60
2019-02-26T07:03:57.321Z,27.27
2019-02-26T07:06:45.460Z,26.40
2019-02-26T07:09:52.797Z,27.80
2019-02-26T07:12:43.018Z,27.80
2019-02-26T07:15:31.153Z,29.03
2019-02-26T07:21:55.495Z,27.60
2019-02-26T07:33:15.507Z,29.20
2019-02-26T07:35:57.336Z,28.13
2019-02-26T07:38:41.512Z,29.60
2019-02-26T07:44:00.417Z,30.97
2019-02-26T07:46:48.609Z,31.83
2019-02-26T08:07:37.861Z,30.40
2019-02-26T08:11:04.291Z,29.07
2019-02-26T08:13:54.220Z,29.70
2019-02-26T08:25:19.323Z,32.30
2019-02-26T08:28:01.283Z,34.20
2019-02-26T08:30:44.518Z,30.87
2019-02-26T08:36:28.103Z,32.10
2019-02-26T08:39:08.780Z,33.77
2019-02-26T08:41:52.462Z,33.73
2019-02-26T08:44:33.338Z,31.87
2019-02-26T08:47:16.233Z,34.80
2019-02-26T08:52:33.411Z,34.40
2019-02-26T08:55:24.381Z,33.67
2019-02-26T08:58:12.517Z,35.80
2019-02-26T09:00:41.553Z,35.30
2019-02-26T09:03:11.423Z,36.10
2019-02-26T09:05:41.258Z,34.47
2019-02-26T09:08:12.851Z,34.97
2019-02-26T09:11:00.862Z,35.80
2019-02-26T09:13:49.862Z,33.00
2019-02-26T09:16:38.325Z,35.70
2019-02-26T09:19:27.910Z,36.07
2019-02-26T09:22:19.310Z,35.87
2019-02-26T09:25:06.195Z,36.00
2019-02-26T09:27:54.407Z,37.90
2019-02-26T09:30:23.330Z,35.33
2019-02-26T09:33:11.601Z,34.57
2019-02-26T09:35:59.776Z,36.50
2019-02-26T09:38:49.626Z,35.07
2019-02-26T09:41:40.214Z,36.63
2019-02-26T09:44:29.250Z,36.87
2019-02-26T09:50:17.722Z,37.80
2019-02-26T09:53:06.461Z,37.37
2019-02-26T09:55:54.724Z,37.47
2019-02-26T09:58:45.599Z,36.30
2019-02-26T10:01:14.000Z,37.87
2019-02-26T10:04:05.384Z,36.50
2019-02-26T10:06:53.760Z,35.97
2019-02-26T10:09:48.520Z,36.13
2019-02-26T10:12:34.773Z,37.23
2019-02-26T10:15:23.890Z,38.43
2019-02-26T10:18:32.986Z,39.07
2019-02-26T10:21:21.585Z,38.40
2019-02-26T10:24:04.634Z,37.07
2019-02-26T10:26:49.434Z,37.00
2019-02-26T10:29:32.307Z,39.00
2019-02-26T10:32:13.214Z,40.00
2019-02-26T10:34:54.130Z,40.00
2019-02-26T10:37:36.928Z,38.70
2019-02-26T10:43:09.011Z,37.67
2019-02-26T10:45:52.415Z,40.97
2019-02-26T10:48:32.892Z,39.03
2019-02-26T10:51:16.640Z,42.53
2019-02-26T10:53:57.522Z,40.90
2019-02-26T10:56:41.966Z,39.07
2019-02-26T10:59:23.453Z,39.37
2019-02-26T11:02:03.328Z,41.30
2019-02-26T11:04:46.746Z,40.60
2019-02-26T11:07:28.831Z,40.43
2019-02-26T11:10:11.958Z,39.57
2019-02-26T11:12:56.293Z,40.00
2019-02-26T11:15:39.323Z,41.13
2019-02-26T11:18:23.399Z,40.07
2019-02-26T11:21:03.670Z,40.37
2019-02-26T11:23:46.457Z,38.63
2019-02-26T11:26:27.625Z,42.40
2019-02-26T11:29:08.692Z,42.47
2019-02-26T11:31:49.741Z,39.57
2019-02-26T11:34:33.344Z,40.87
2019-02-26T11:37:13.848Z,39.73
2019-02-26T11:39:55.188Z,42.50
2019-02-26T11:42:36.966Z,41.70
2019-02-26T11:45:19.337Z,40.77
2019-02-26T11:48:03.685Z,39.67
2019-02-26T11:50:45.799Z,39.80
2019-02-26T11:53:29.598Z,40.90
2019-02-26T11:56:09.035Z,41.73
2019-02-26T11:58:50.643Z,40.37
2019-02-26T12:01:32.221Z,40.97
2019-02-26T12:04:17.960Z,41.10
2019-02-26T12:07:01.026Z,39.70
2019-02-26T12:09:43.335Z,41.40
2019-02-26T12:12:25.736Z,42.63
2019-02-26T12:15:11.947Z,42.63
2019-02-26T12:17:52.273Z,40.23
2019-02-26T12:20:35.595Z,38.80
2019-02-26T12:23:19.912Z,43.10
2019-02-26T12:26:02.071Z,42.07
2019-02-26T12:31:16.862Z,43.00
2019-02-26T12:37:02.667Z,40.90
2019-02-26T12:39:55.540Z,42.70
2019-02-26T12:42:44.611Z,40.83
2019-02-26T12:45:38.694Z,43.57
2019-02-26T12:48:46.947Z,42.07
2019-02-26T12:51:47.588Z,41.90
2019-02-26T12:57:26.329Z,40.77
2019-02-26T13:00:37.571Z,42.30
2019-02-26T13:03:24.736Z,40.40
2019-02-26T13:06:16.597Z,42.13
2019-02-26T13:09:04.076Z,42.13
2019-02-26T13:14:42.165Z,42.17
2019-02-26T13:17:32.353Z,40.00
2019-02-26T13:20:05.518Z,40.87
2019-02-26T13:22:45.747Z,40.40
2019-02-26T13:27:58.581Z,41.30
2019-02-26T13:30:46.863Z,39.03
2019-02-26T13:33:37.759Z,40.60
2019-02-26T13:36:25.097Z,42.60
2019-02-26T13:39:21.906Z,40.60
2019-02-26T13:42:05.555Z,41.43
2019-02-26T13:44:53.239Z,41.57
2019-02-26T13:47:41.594Z,39.47
2019-02-26T13:50:30.036Z,39.93
2019-02-26T13:53:18.331Z,42.53
2019-02-26T13:56:06.470Z,41.07
2019-02-26T13:58:54.820Z,40.10
2019-02-26T14:01:43.035Z,38.40
2019-02-26T14:04:31.499Z,41.20
2019-02-26T14:07:19.868Z,41.30
2019-02-26T14:10:09.017Z,42.53
2019-02-26T14:12:38.093Z,42.13
2019-02-26T14:15:15.385Z,40.47
2019-02-26T14:17:58.682Z,39.83
2019-02-26T14:20:28.003Z,41.40
2019-02-26T14:22:57.311Z,40.27
2019-02-26T14:25:26.470Z,41.03
2019-02-26T14:28:14.785Z,38.70
2019-02-26T14:30:43.797Z,41.43
2019-02-26T14:33:12.803Z,39.17
2019-02-26T14:35:41.897Z,40.97
2019-02-26T14:38:30.145Z,37.90
2019-02-26T14:41:00.110Z,39.80
2019-02-26T14:43:49.155Z,40.60
2019-02-26T14:46:37.458Z,39.97
2019-02-26T14:49:25.646Z,38.00
2019-02-26T14:52:14.011Z,38.00
2019-02-26T14:55:02.390Z,40.40
2019-02-26T14:57:50.592Z,37.60
2019-02-26T15:00:39.006Z,38.80
2019-02-26T15:03:27.137Z,37.90
2019-02-26T15:06:15.674Z,38.57
2019-02-26T15:09:06.172Z,38.80
2019-02-26T15:11:56.411Z,38.90
2019-02-26T15:14:45.041Z,38.40
2019-02-26T15:17:33.432Z,37.93
2019-02-26T15:20:21.724Z,38.70
2019-02-26T15:23:10.010Z,36.83
2019-02-26T15:25:50.780Z,36.03
2019-02-26T15:28:31.371Z,38.13
2019-02-26T15:31:12.076Z,39.53
2019-02-26T15:33:55.819Z,39.80
2019-02-26T15:36:37.252Z,39.17
2019-02-26T15:42:00.748Z,39.90
2019-02-26T15:44:42.496Z,39.37
2019-02-26T15:47:23.877Z,37.93
2019-02-26T15:50:06.718Z,40.33
2019-02-26T15:52:52.554Z,38.77
2019-02-26T15:55:30.984Z,40.40
2019-02-26T16:01:12.835Z,37.67
2019-02-26T16:03:52.947Z,40.10
2019-02-26T16:06:34.255Z,39.37
2019-02-26T16:09:15.482Z,40.27
2019-02-26T16:11:58.938Z,40.33
2019-02-26T16:14:40.283Z,38.00
2019-02-26T16:20:03.802Z,39.43
2019-02-26T16:22:45.014Z,39.70
2019-02-26T16:25:25.867Z,38.53
2019-02-26T16:28:07.201Z,41.30
2019-02-26T16:30:37.653Z,38.10
2019-02-26T16:33:25.967Z,38.70
2019-02-26T16:35:57.440Z,40.93
2019-02-26T16:38:25.917Z,39.43
2019-02-26T16:40:54.837Z,40.47
2019-02-26T16:43:23.740Z,39.27
2019-02-26T16:45:52.738Z,41.37
2019-02-26T16:48:22.184Z,41.93
2019-02-26T16:50:51.423Z,43.90
2019-02-26T16:53:23.703Z,41.23
2019-02-26T16:55:52.785Z,42.70
2019-02-26T16:58:36.284Z,42.13
2019-02-26T17:01:25.486Z,57.97
2019-02-26T17:03:54.473Z,61.03
2019-02-26T17:06:30.887Z,44.17
2019-02-26T17:09:02.960Z,41.73
2019-02-26T17:11:31.945Z,42.80
2019-02-26T17:14:26.637Z,41.43
2019-02-26T17:16:56.044Z,41.70
2019-02-26T17:19:25.375Z,41.53
2019-02-26T17:21:54.615Z,41.80
2019-02-26T17:24:24.417Z,40.17
2019-02-26T17:26:53.360Z,40.97
2019-02-26T17:29:22.368Z,40.97
2019-02-26T17:31:51.553Z,41.40
2019-02-26T17:34:23.418Z,43.67
2019-02-26T17:36:51.133Z,43.93
2019-02-26T17:39:20.269Z,44.43
2019-02-26T17:41:54.210Z,42.83
2019-02-26T17:44:23.240Z,45.80
2019-02-26T17:46:52.168Z,42.67
2019-02-26T17:49:21.118Z,42.03
2019-02-26T17:51:50.085Z,41.57
2019-02-26T17:54:19.516Z,42.87
2019-02-26T17:56:48.452Z,47.30
2019-02-26T17:59:17.393Z,53.07
2019-02-26T18:01:46.372Z,51.97
2019-02-26T18:04:15.216Z,46.90
2019-02-26T18:06:44.293Z,45.97
2019-02-26T18:09:13.681Z,47.90
2019-02-26T18:11:42.557Z,46.97
2019-02-26T18:14:11.650Z,49.23
2019-02-26T18:16:41.666Z,44.60
2019-02-26T18:19:12.398Z,45.63
2019-02-26T18:21:43.237Z,44.83
2019-02-26T18:24:11.960Z,44.20
2019-02-26T18:26:40.504Z,45.17
2019-02-26T18:29:09.489Z,46.50
2019-02-26T18:31:37.976Z,47.40
2019-02-26T18:34:06.382Z,47.23
2019-02-26T18:36:34.835Z,46.43
2019-02-26T18:39:04.180Z,50.07
2019-02-26T18:41:35.111Z,50.20
2019-02-26T18:44:06.967Z,51.70
2019-02-26T18:46:35.400Z,51.33
2019-02-26T18:49:05.180Z,49.57
2019-02-26T18:51:36.522Z,50.67
2019-02-26T18:54:03.892Z,52.50
2019-02-26T18:56:36.775Z,50.20
2019-02-26T18:59:02.558Z,49.30
2019-02-26T19:01:31.454Z,47.97
2019-02-26T19:04:00.019Z,46.17
2019-02-26T19:06:31.470Z,48.63
2019-02-26T19:08:59.898Z,46.73
2019-02-26T19:11:28.507Z,48.90
2019-02-26T19:13:57.029Z,49.50
2019-02-26T19:16:25.544Z,49.43
2019-02-26T19:18:54.540Z,48.53
2019-02-26T19:21:23.650Z,48.40
2019-02-26T19:23:52.995Z,45.63
2019-02-26T19:26:21.932Z,48.07
2019-02-26T19:28:50.932Z,48.50
2019-02-26T19:31:19.872Z,50.90
2019-02-26T19:33:48.724Z,48.73
2019-02-26T19:36:17.614Z,47.97
2019-02-26T19:38:46.492Z,48.37
2019-02-26T19:41:15.761Z,49.80
2019-02-26T19:43:44.774Z,49.80
2019-02-26T19:46:16.866Z,51.57
2019-02-26T19:48:44.418Z,47.47
2019-02-26T19:51:13.339Z,53.50
2019-02-26T19:53:42.294Z,51.43
2019-02-26T19:56:11.636Z,53.30
2019-02-26T19:58:40.993Z,48.00
2019-02-26T20:01:10.574Z,47.93
2019-02-26T20:03:40.255Z,49.17
2019-02-26T20:06:09.890Z,49.23
2019-02-26T20:08:38.922Z,47.07
2019-02-26T20:11:07.849Z,50.57
2019-02-26T20:13:41.901Z,50.57
2019-02-26T20:16:07.510Z,50.40
2019-02-26T20:18:36.499Z,51.77
2019-02-26T20:21:05.694Z,51.40
2019-02-26T20:23:34.514Z,48.80
2019-02-26T20:26:03.482Z,49.77
2019-02-26T20:28:35.223Z,49.47
2019-02-26T20:31:02.212Z,48.50
2019-02-26T20:33:31.118Z,49.23
2019-02-26T20:35:59.694Z,51.33
2019-02-26T20:38:32.063Z,52.37
2019-02-26T20:40:58.522Z,54.17
2019-02-26T20:43:27.190Z,51.47
2019-02-26T20:45:56.094Z,56.27
2019-02-26T20:48:25.003Z,53.40
2019-02-26T20:50:55.915Z,53.33
2019-02-26T20:53:24.656Z,51.67
2019-02-26T20:55:57.484Z,54.27
2019-02-26T20:58:24.381Z,56.97
2019-02-26T21:00:53.363Z,56.90
2019-02-26T21:03:22.429Z,56.13
2019-02-26T21:05:52.103Z,55.50
2019-02-26T21:08:21.063Z,53.50
2019-02-26T21:10:50.147Z,55.47
2019-02-26T21:13:19.184Z,53.43
2019-02-26T21:15:48.214Z,53.97
2019-02-26T21:18:17.303Z,55.50
2019-02-26T21:20:46.498Z,54.73
2019-02-26T21:23:15.431Z,52.13
2019-02-26T21:25:47.401Z,54.63
2019-02-26T21:28:15.067Z,53.37
2019-02-26T21:30:45.815Z,52.97
2019-02-26T21:33:15.479Z,53.27
2019-02-26T21:35:44.388Z,53.53
2019-02-26T21:38:13.445Z,55.60
2019-02-26T21:40:42.454Z,53.10
2019-02-26T21:43:12.403Z,54.30
2019-02-26T21:45:41.711Z,54.43
2019-02-26T21:48:12.107Z,54.57
2019-02-26T21:50:41.215Z,52.00
2019-02-26T21:53:10.193Z,53.00
2019-02-26T21:55:44.298Z,53.73
2019-02-26T21:58:09.917Z,52.33
2019-02-26T22:00:39.813Z,54.77
2019-02-26T22:03:08.752Z,53.77
2019-02-26T22:05:38.398Z,54.87
2019-02-26T22:08:07.065Z,58.20
2019-02-26T22:10:35.445Z,55.60
2019-02-26T22:13:04.599Z,55.63
2019-02-26T22:15:33.537Z,55.20
2019-02-26T22:18:02.514Z,50.30
2019-02-26T22:20:36.114Z,54.70
2019-02-26T22:23:02.143Z,58.00
2019-02-26T22:25:31.019Z,59.23
2019-02-26T22:27:59.901Z,55.40
2019-02-26T22:30:28.829Z,58.60
2019-02-26T22:32:57.799Z,58.30
2019-02-26T22:35:26.672Z,53.43
2019-02-26T22:37:55.643Z,56.93
2019-02-26T22:40:28.860Z,52.70
2019-02-26T22:42:55.261Z,56.33
2019-02-26T22:45:27.697Z,54.87
2019-02-26T22:47:54.872Z,56.70
2019-02-26T22:50:24.874Z,61.00
2019-02-26T22:52:54.555Z,62.87
2019-02-26T22:55:23.564Z,60.80
2019-02-26T22:57:52.623Z,59.47
2019-02-26T23:00:49.405Z,63.57
2019-02-26T23:03:16.727Z,65.23
2019-02-26T23:05:45.721Z,61.80
2019-02-26T23:08:14.722Z,65.57
2019-02-26T23:10:44.123Z,54.63
2019-02-26T23:13:13.481Z,59.90
2019-02-26T23:15:45.122Z,57.00
2019-02-26T23:18:13.424Z,61.33
2019-02-26T23:20:43.287Z,62.63
2019-02-26T23:23:12.481Z,62.13
2019-02-26T23:25:41.745Z,62.43
2019-02-26T23:39:18.880Z,68.20
2019-02-26T23:42:09.866Z,67.83
2019-02-26T23:44:51.704Z,64.77
2019-02-26T23:50:50.014Z,71.27
